createdAt,value
2022-08-02T00:00:39.309Z,15.96
2022-08-02T00:10:16.732Z,16.02
2022-08-02T00:19:54.120Z,15.9
2022-08-02T00:29:31.425Z,16
2022-08-02T00:39:34.310Z,16.02
2022-08-02T00:48:46.104Z,15.95
2022-08-02T00:58:23.101Z,15.47
2022-08-02T01:07:59.495Z,15.09
2022-08-02T01:17:36.088Z,14.79
2022-08-02T01:27:13.021Z,14.73
2022-08-02T01:36:50.025Z,14.54
2022-08-02T01:46:26.917Z,14.36
2022-08-02T01:56:03.889Z,14.3
2022-08-02T02:05:41.439Z,14.21
2022-08-02T02:15:18.536Z,14.16
2022-08-02T02:24:55.978Z,14.17
2022-08-02T02:34:33.002Z,14.02
2022-08-02T02:44:10.277Z,14.09
2022-08-02T02:54:26.598Z,13.98
2022-08-02T03:03:24.283Z,13.87
2022-08-02T03:13:01.509Z,13.81
2022-08-02T03:22:38.378Z,13.72
2022-08-02T03:32:15.621Z,13.87
2022-08-02T03:41:52.814Z,13.69
2022-08-02T03:51:29.725Z,13.56
2022-08-02T04:01:06.676Z,13.33
2022-08-02T04:10:44.012Z,13.4
2022-08-02T04:20:21.308Z,13.51
2022-08-02T04:29:58.898Z,13.62
2022-08-02T04:39:36.442Z,13.83
2022-08-02T04:49:14.422Z,14.07
2022-08-02T04:58:52.599Z,14.79
2022-08-02T05:08:30.615Z,15.34
2022-08-02T05:18:09.083Z,15.9
2022-08-02T05:27:47.442Z,16.47
2022-08-02T05:37:25.162Z,16.9
2022-08-02T05:47:03.475Z,17.18
2022-08-02T05:56:43.825Z,17.72
2022-08-02T06:06:19.974Z,17.99
2022-08-02T06:15:57.584Z,17.95
2022-08-02T06:25:48.713Z,17.41
2022-08-02T06:35:11.253Z,17.78
2022-08-02T06:44:51.877Z,17.66
2022-08-02T06:54:26.546Z,18.05
2022-08-02T07:04:04.724Z,18.51
2022-08-02T07:13:42.653Z,18.74
2022-08-02T07:23:20.192Z,18.8
2022-08-02T07:32:58.033Z,19.03
2022-08-02T07:42:35.859Z,19.48
2022-08-02T07:52:14.300Z,19.66
2022-08-02T08:01:52.130Z,19.83
2022-08-02T08:11:29.469Z,20.24
2022-08-02T08:21:07.768Z,20.62
2022-08-02T08:30:46.254Z,20.81
2022-08-02T08:40:24.466Z,21.58
2022-08-02T08:50:03.234Z,21.86
2022-08-02T08:59:41.497Z,22.07
2022-08-02T09:09:19.713Z,22.68
2022-08-02T09:18:58.181Z,23.4
2022-08-02T09:28:36.288Z,24.34
2022-08-02T09:38:19.434Z,25.46
2022-08-02T09:48:10.297Z,26.89
2022-08-02T09:57:53.883Z,27.44
2022-08-02T10:07:35.948Z,28.47
2022-08-02T10:17:18.107Z,28.87
2022-08-02T10:26:58.723Z,28.77
2022-08-02T10:36:39.381Z,28.85
2022-08-02T10:46:20.305Z,29.84
2022-08-02T10:56:01.353Z,29.95
2022-08-02T11:05:44.239Z,32.71
2022-08-02T11:15:28.775Z,33.75
2022-08-02T11:25:09.325Z,34.61
2022-08-02T11:34:46.284Z,32.56
2022-08-02T11:44:14.550Z,29.79
2022-08-02T11:53:37.889Z,28.46
2022-08-02T12:03:41.697Z,32.38
2022-08-02T12:13:23.160Z,30.92
2022-08-02T12:23:00.555Z,30.95
2022-08-02T12:32:48.100Z,30.3
2022-08-02T12:42:31.020Z,31.35
2022-08-02T12:52:10.033Z,30.2
2022-08-02T13:01:39.304Z,29.56
2022-08-02T13:11:30.463Z,32.45
2022-08-02T13:21:06.774Z,33.42
2022-08-02T13:30:36.347Z,30.04
2022-08-02T13:40:26.664Z,31.96
2022-08-02T13:50:05.448Z,33.67
2022-08-02T13:59:55.599Z,34.11
2022-08-02T14:09:26.248Z,35.19
2022-08-02T14:19:05.390Z,34.35
2022-08-02T14:28:44.941Z,35.41
2022-08-02T14:38:22.330Z,35.96
2022-08-02T14:47:57.226Z,35.41
2022-08-02T14:57:36.133Z,35.1
2022-08-02T15:07:12.888Z,34.73
2022-08-02T15:16:55.805Z,34.58
2022-08-02T15:26:14.330Z,35.62
2022-08-02T15:35:46.551Z,33.46
2022-08-02T15:45:19.784Z,31.18
2022-08-02T15:54:53.870Z,30.93
2022-08-02T16:04:29.586Z,30.89
2022-08-02T16:14:06.206Z,30.12
2022-08-02T16:23:58.531Z,28.96
2022-08-02T16:33:18.299Z,29.03
2022-08-02T16:42:55.134Z,28.52
2022-08-02T16:52:31.743Z,28.67
2022-08-02T17:02:12.119Z,28.35
2022-08-02T17:11:46.971Z,28.24
2022-08-02T17:21:23.692Z,28.34
2022-08-02T17:31:00.871Z,28.17
2022-08-02T17:40:38.882Z,27.9
2022-08-02T17:50:14.773Z,27.23
2022-08-02T18:00:03.789Z,26.9
2022-08-02T18:09:27.835Z,26.44
2022-08-02T18:19:04.742Z,25.95
2022-08-02T18:28:41.645Z,25.4
2022-08-02T18:38:18.209Z,24.76
2022-08-02T18:47:54.353Z,24.23
2022-08-02T18:57:58.951Z,23.3
2022-08-02T19:07:08.283Z,22.61
2022-08-02T19:16:43.727Z,21.98
2022-08-02T19:26:20.591Z,21.52
2022-08-02T19:36:01.354Z,21.44
2022-08-02T19:45:50.440Z,21.29
2022-08-02T19:55:59.250Z,20.95
2022-08-02T20:14:27.167Z,19.87
2022-08-02T20:24:00.841Z,19.52
2022-08-02T20:33:55.629Z,19.28
2022-08-02T20:43:13.587Z,18.8
2022-08-02T20:52:50.379Z,18.52
2022-08-02T21:02:26.834Z,18.21
2022-08-02T21:12:03.537Z,17.91
2022-08-02T21:21:40.792Z,17.56
2022-08-02T21:31:17.821Z,17.33
2022-08-02T21:40:55.313Z,17.2
2022-08-02T21:50:32.412Z,17.09
2022-08-02T22:00:09.696Z,16.83
2022-08-02T22:09:46.446Z,16.48
2022-08-02T22:19:23.271Z,16.22
2022-08-02T22:28:59.831Z,16.02
2022-08-02T22:38:36.813Z,15.9
2022-08-02T22:48:15.617Z,15.67
2022-08-02T22:57:50.481Z,15.57
2022-08-02T22:59:01.146Z,20.6
2022-08-02T23:07:39.330Z,15.45
2022-08-02T23:17:28.297Z,15.22
2022-08-02T23:27:05.354Z,15.21
2022-08-02T23:50:52.577Z,14.94
